sensor_id;sensor_type;location;lat;lon;timestamp;P1;durP1;ratioP1;P2;durP2;ratioP2
17424;SDS011;8830;50.978;5.058;2023-04-29T00:00:06;52.97;;;29.37;;
17424;SDS011;8830;50.978;5.058;2023-04-29T00:02:36;54.57;;;31.57;;
17424;SDS011;8830;50.978;5.058;2023-04-29T00:05:03;48.47;;;29.57;;
17424;SDS011;8830;50.978;5.058;2023-04-29T00:07:30;49.33;;;29.60;;
17424;SDS011;8830;50.978;5.058;2023-04-29T00:09:58;50.63;;;30.23;;
17424;SDS011;8830;50.978;5.058;2023-04-29T00:12:25;48.63;;;28.87;;
17424;SDS011;8830;50.978;5.058;2023-04-29T00:14:54;51.20;;;29.63;;
17424;SDS011;8830;50.978;5.058;2023-04-29T00:17:21;50.17;;;29.43;;
17424;SDS011;8830;50.978;5.058;2023-04-29T00:19:50;42.40;;;26.57;;
17424;SDS011;8830;50.978;5.058;2023-04-29T00:22:17;44.40;;;27.70;;
17424;SDS011;8830;50.978;5.058;2023-04-29T00:24:46;42.60;;;29.77;;
17424;SDS011;8830;50.978;5.058;2023-04-29T00:27:13;43.57;;;27.33;;
17424;SDS011;8830;50.978;5.058;2023-04-29T00:29:41;46.77;;;27.47;;
17424;SDS011;8830;50.978;5.058;2023-04-29T00:32:08;48.73;;;28.43;;
17424;SDS011;8830;50.978;5.058;2023-04-29T00:34:35;44.10;;;27.13;;
17424;SDS011;8830;50.978;5.058;2023-04-29T00:37:03;44.10;;;27.33;;
17424;SDS011;8830;50.978;5.058;2023-04-29T00:39:30;38.30;;;25.67;;
17424;SDS011;8830;50.978;5.058;2023-04-29T00:41:58;40.33;;;26.53;;
17424;SDS011;8830;50.978;5.058;2023-04-29T00:44:27;41.07;;;25.77;;
17424;SDS011;8830;50.978;5.058;2023-04-29T00:46:54;39.17;;;25.37;;
17424;SDS011;8830;50.978;5.058;2023-04-29T00:49:21;37.03;;;24.70;;
17424;SDS011;8830;50.978;5.058;2023-04-29T00:51:49;38.50;;;25.43;;
17424;SDS011;8830;50.978;5.058;2023-04-29T00:54:17;39.47;;;24.80;;
17424;SDS011;8830;50.978;5.058;2023-04-29T00:56:45;38.97;;;24.40;;
17424;SDS011;8830;50.978;5.058;2023-04-29T00:59:12;38.37;;;25.03;;
17424;SDS011;8830;50.978;5.058;2023-04-29T01:01:41;40.33;;;24.97;;
17424;SDS011;8830;50.978;5.058;2023-04-29T01:04:08;35.73;;;24.67;;
17424;SDS011;8830;50.978;5.058;2023-04-29T01:06:39;40.73;;;23.93;;
17424;SDS011;8830;50.978;5.058;2023-04-29T01:09:25;45.73;;;26.33;;
17424;SDS011;8830;50.978;5.058;2023-04-29T01:12:03;36.57;;;24.87;;
17424;SDS011;8830;50.978;5.058;2023-04-29T01:14:36;40.03;;;24.97;;
17424;SDS011;8830;50.978;5.058;2023-04-29T01:17:09;41.53;;;25.67;;
17424;SDS011;8830;50.978;5.058;2023-04-29T01:19:43;42.73;;;26.10;;
17424;SDS011;8830;50.978;5.058;2023-04-29T01:22:13;43.37;;;26.87;;
17424;SDS011;8830;50.978;5.058;2023-04-29T01:24:43;45.73;;;27.70;;
17424;SDS011;8830;50.978;5.058;2023-04-29T01:27:13;43.47;;;26.47;;
17424;SDS011;8830;50.978;5.058;2023-04-29T01:29:50;41.17;;;25.63;;
17424;SDS011;8830;50.978;5.058;2023-04-29T01:32:25;43.27;;;26.60;;
17424;SDS011;8830;50.978;5.058;2023-04-29T01:37:55;42.97;;;26.97;;
17424;SDS011;8830;50.978;5.058;2023-04-29T01:40:42;44.80;;;26.90;;
17424;SDS011;8830;50.978;5.058;2023-04-29T01:43:13;43.30;;;26.30;;
17424;SDS011;8830;50.978;5.058;2023-04-29T01:45:42;50.27;;;27.23;;
17424;SDS011;8830;50.978;5.058;2023-04-29T01:48:10;42.33;;;26.00;;
17424;SDS011;8830;50.978;5.058;2023-04-29T01:50:37;38.50;;;24.33;;
17424;SDS011;8830;50.978;5.058;2023-04-29T01:53:05;37.03;;;24.27;;
17424;SDS011;8830;50.978;5.058;2023-04-29T01:55:32;39.63;;;24.90;;
17424;SDS011;8830;50.978;5.058;2023-04-29T01:58:01;35.47;;;24.03;;
17424;SDS011;8830;50.978;5.058;2023-04-29T02:00:28;42.57;;;25.30;;
17424;SDS011;8830;50.978;5.058;2023-04-29T02:02:55;36.87;;;24.20;;
17424;SDS011;8830;50.978;5.058;2023-04-29T02:05:22;33.90;;;23.37;;
17424;SDS011;8830;50.978;5.058;2023-04-29T02:07:49;35.80;;;23.10;;
17424;SDS011;8830;50.978;5.058;2023-04-29T02:10:17;32.47;;;23.70;;
17424;SDS011;8830;50.978;5.058;2023-04-29T02:12:44;42.83;;;25.50;;
17424;SDS011;8830;50.978;5.058;2023-04-29T02:15:12;34.80;;;24.17;;
17424;SDS011;8830;50.978;5.058;2023-04-29T02:17:40;32.23;;;24.57;;
17424;SDS011;8830;50.978;5.058;2023-04-29T02:20:07;34.60;;;23.43;;
17424;SDS011;8830;50.978;5.058;2023-04-29T02:22:35;39.70;;;25.70;;
17424;SDS011;8830;50.978;5.058;2023-04-29T02:25:02;36.97;;;25.13;;
17424;SDS011;8830;50.978;5.058;2023-04-29T02:27:30;36.50;;;24.73;;
17424;SDS011;8830;50.978;5.058;2023-04-29T02:29:57;42.73;;;28.50;;
17424;SDS011;8830;50.978;5.058;2023-04-29T02:32:26;44.43;;;29.77;;
17424;SDS011;8830;50.978;5.058;2023-04-29T02:34:53;48.13;;;29.07;;
17424;SDS011;8830;50.978;5.058;2023-04-29T02:37:20;43.70;;;30.03;;
17424;SDS011;8830;50.978;5.058;2023-04-29T02:39:48;44.40;;;30.53;;
17424;SDS011;8830;50.978;5.058;2023-04-29T02:42:16;50.80;;;31.90;;
17424;SDS011;8830;50.978;5.058;2023-04-29T02:44:44;49.33;;;32.90;;
17424;SDS011;8830;50.978;5.058;2023-04-29T02:47:11;50.83;;;33.10;;
17424;SDS011;8830;50.978;5.058;2023-04-29T02:49:40;55.43;;;33.67;;
17424;SDS011;8830;50.978;5.058;2023-04-29T02:52:07;46.50;;;31.93;;
17424;SDS011;8830;50.978;5.058;2023-04-29T02:54:34;45.37;;;31.27;;
17424;SDS011;8830;50.978;5.058;2023-04-29T02:57:02;49.10;;;31.87;;
17424;SDS011;8830;50.978;5.058;2023-04-29T02:59:29;48.33;;;32.97;;
17424;SDS011;8830;50.978;5.058;2023-04-29T03:01:56;49.93;;;33.00;;
17424;SDS011;8830;50.978;5.058;2023-04-29T03:04:23;50.10;;;33.03;;
17424;SDS011;8830;50.978;5.058;2023-04-29T03:06:52;54.33;;;34.17;;
17424;SDS011;8830;50.978;5.058;2023-04-29T03:09:21;46.83;;;32.00;;
17424;SDS011;8830;50.978;5.058;2023-04-29T03:11:48;52.73;;;34.50;;
17424;SDS011;8830;50.978;5.058;2023-04-29T03:14:15;52.90;;;33.67;;
17424;SDS011;8830;50.978;5.058;2023-04-29T03:16:43;53.57;;;34.43;;
17424;SDS011;8830;50.978;5.058;2023-04-29T03:19:10;53.33;;;35.20;;
17424;SDS011;8830;50.978;5.058;2023-04-29T03:21:37;49.77;;;34.13;;
17424;SDS011;8830;50.978;5.058;2023-04-29T03:24:05;51.97;;;35.30;;
17424;SDS011;8830;50.978;5.058;2023-04-29T03:26:33;57.63;;;35.10;;
17424;SDS011;8830;50.978;5.058;2023-04-29T03:29:01;51.17;;;34.40;;
17424;SDS011;8830;50.978;5.058;2023-04-29T03:31:28;61.53;;;36.77;;
17424;SDS011;8830;50.978;5.058;2023-04-29T03:33:55;56.23;;;34.80;;
17424;SDS011;8830;50.978;5.058;2023-04-29T03:36:22;57.63;;;35.23;;
17424;SDS011;8830;50.978;5.058;2023-04-29T03:38:49;59.93;;;36.07;;
17424;SDS011;8830;50.978;5.058;2023-04-29T03:41:18;64.50;;;37.47;;
17424;SDS011;8830;50.978;5.058;2023-04-29T03:43:45;61.67;;;38.23;;
17424;SDS011;8830;50.978;5.058;2023-04-29T03:46:12;62.13;;;37.40;;
17424;SDS011;8830;50.978;5.058;2023-04-29T03:48:39;69.37;;;39.50;;
17424;SDS011;8830;50.978;5.058;2023-04-29T03:51:07;67.93;;;39.70;;
17424;SDS011;8830;50.978;5.058;2023-04-29T03:53:35;66.03;;;39.13;;
17424;SDS011;8830;50.978;5.058;2023-04-29T03:56:04;72.33;;;40.63;;
17424;SDS011;8830;50.978;5.058;2023-04-29T03:58:33;63.97;;;37.40;;
17424;SDS011;8830;50.978;5.058;2023-04-29T04:01:00;70.40;;;40.40;;
17424;SDS011;8830;50.978;5.058;2023-04-29T04:03:27;76.53;;;40.30;;
17424;SDS011;8830;50.978;5.058;2023-04-29T04:05:54;64.03;;;38.73;;
17424;SDS011;8830;50.978;5.058;2023-04-29T04:08:22;74.00;;;38.20;;
17424;SDS011;8830;50.978;5.058;2023-04-29T04:10:49;70.03;;;40.80;;
17424;SDS011;8830;50.978;5.058;2023-04-29T04:13:16;65.13;;;39.07;;
17424;SDS011;8830;50.978;5.058;2023-04-29T04:15:49;66.37;;;38.70;;
17424;SDS011;8830;50.978;5.058;2023-04-29T04:18:17;63.80;;;37.93;;
17424;SDS011;8830;50.978;5.058;2023-04-29T04:20:44;66.63;;;37.20;;
17424;SDS011;8830;50.978;5.058;2023-04-29T04:23:11;60.80;;;35.63;;
17424;SDS011;8830;50.978;5.058;2023-04-29T04:25:43;60.03;;;36.07;;
17424;SDS011;8830;50.978;5.058;2023-04-29T04:28:11;65.83;;;37.57;;
17424;SDS011;8830;50.978;5.058;2023-04-29T04:30:38;69.53;;;37.57;;
17424;SDS011;8830;50.978;5.058;2023-04-29T04:33:07;65.67;;;36.83;;
17424;SDS011;8830;50.978;5.058;2023-04-29T04:35:34;65.30;;;36.93;;
17424;SDS011;8830;50.978;5.058;2023-04-29T04:38:02;62.13;;;37.33;;
17424;SDS011;8830;50.978;5.058;2023-04-29T04:40:29;63.17;;;36.33;;
17424;SDS011;8830;50.978;5.058;2023-04-29T04:42:56;62.37;;;36.53;;
17424;SDS011;8830;50.978;5.058;2023-04-29T04:45:24;70.03;;;37.00;;
17424;SDS011;8830;50.978;5.058;2023-04-29T04:47:51;63.60;;;36.73;;
17424;SDS011;8830;50.978;5.058;2023-04-29T04:50:20;66.10;;;36.10;;
17424;SDS011;8830;50.978;5.058;2023-04-29T04:52:47;85.47;;;40.93;;
17424;SDS011;8830;50.978;5.058;2023-04-29T04:55:14;80.50;;;40.63;;
17424;SDS011;8830;50.978;5.058;2023-04-29T04:57:42;70.33;;;37.63;;
17424;SDS011;8830;50.978;5.058;2023-04-29T05:00:09;80.13;;;38.93;;
17424;SDS011;8830;50.978;5.058;2023-04-29T05:02:37;71.07;;;38.10;;
17424;SDS011;8830;50.978;5.058;2023-04-29T05:05:05;73.80;;;38.90;;
17424;SDS011;8830;50.978;5.058;2023-04-29T05:07:34;63.53;;;36.90;;
17424;SDS011;8830;50.978;5.058;2023-04-29T05:10:01;68.60;;;37.80;;
17424;SDS011;8830;50.978;5.058;2023-04-29T05:12:30;71.07;;;37.93;;
17424;SDS011;8830;50.978;5.058;2023-04-29T05:14:59;74.00;;;39.23;;
17424;SDS011;8830;50.978;5.058;2023-04-29T05:17:26;71.50;;;38.73;;
17424;SDS011;8830;50.978;5.058;2023-04-29T05:19:54;65.23;;;38.20;;
17424;SDS011;8830;50.978;5.058;2023-04-29T05:22:21;71.80;;;37.23;;
17424;SDS011;8830;50.978;5.058;2023-04-29T05:24:50;67.80;;;38.50;;
17424;SDS011;8830;50.978;5.058;2023-04-29T05:27:24;65.10;;;37.57;;
17424;SDS011;8830;50.978;5.058;2023-04-29T05:29:56;74.50;;;39.67;;
17424;SDS011;8830;50.978;5.058;2023-04-29T05:32:23;71.53;;;37.50;;
17424;SDS011;8830;50.978;5.058;2023-04-29T05:34:50;71.03;;;38.37;;
17424;SDS011;8830;50.978;5.058;2023-04-29T05:37:17;69.10;;;37.37;;
17424;SDS011;8830;50.978;5.058;2023-04-29T05:39:44;68.30;;;38.60;;
17424;SDS011;8830;50.978;5.058;2023-04-29T05:42:14;71.47;;;39.37;;
17424;SDS011;8830;50.978;5.058;2023-04-29T05:44:41;70.20;;;39.30;;
17424;SDS011;8830;50.978;5.058;2023-04-29T05:47:08;69.40;;;40.43;;
17424;SDS011;8830;50.978;5.058;2023-04-29T05:49:35;63.67;;;38.47;;
17424;SDS011;8830;50.978;5.058;2023-04-29T05:52:03;71.30;;;38.43;;
17424;SDS011;8830;50.978;5.058;2023-04-29T05:54:30;60.23;;;37.27;;
17424;SDS011;8830;50.978;5.058;2023-04-29T05:56:58;59.17;;;36.03;;
17424;SDS011;8830;50.978;5.058;2023-04-29T05:59:28;63.23;;;35.93;;
17424;SDS011;8830;50.978;5.058;2023-04-29T06:01:56;57.67;;;35.67;;
17424;SDS011;8830;50.978;5.058;2023-04-29T06:04:23;66.90;;;36.57;;
17424;SDS011;8830;50.978;5.058;2023-04-29T06:06:50;60.43;;;36.63;;
17424;SDS011;8830;50.978;5.058;2023-04-29T06:09:18;60.33;;;36.30;;
17424;SDS011;8830;50.978;5.058;2023-04-29T06:11:46;61.40;;;36.57;;
17424;SDS011;8830;50.978;5.058;2023-04-29T06:14:13;50.23;;;32.67;;
17424;SDS011;8830;50.978;5.058;2023-04-29T06:16:42;58.67;;;34.57;;
17424;SDS011;8830;50.978;5.058;2023-04-29T06:19:09;53.97;;;34.67;;
17424;SDS011;8830;50.978;5.058;2023-04-29T06:21:36;59.97;;;35.17;;
17424;SDS011;8830;50.978;5.058;2023-04-29T06:24:04;52.50;;;33.23;;
17424;SDS011;8830;50.978;5.058;2023-04-29T06:26:32;50.50;;;32.47;;
17424;SDS011;8830;50.978;5.058;2023-04-29T06:28:59;49.67;;;32.50;;
17424;SDS011;8830;50.978;5.058;2023-04-29T06:31:26;55.53;;;32.00;;
17424;SDS011;8830;50.978;5.058;2023-04-29T06:33:54;48.63;;;31.30;;
17424;SDS011;8830;50.978;5.058;2023-04-29T06:36:22;46.33;;;32.00;;
17424;SDS011;8830;50.978;5.058;2023-04-29T06:38:49;43.93;;;30.03;;
17424;SDS011;8830;50.978;5.058;2023-04-29T06:41:16;48.90;;;30.67;;
17424;SDS011;8830;50.978;5.058;2023-04-29T06:43:43;42.27;;;29.87;;
17424;SDS011;8830;50.978;5.058;2023-04-29T06:46:11;38.73;;;27.53;;
17424;SDS011;8830;50.978;5.058;2023-04-29T06:48:38;37.07;;;28.23;;
17424;SDS011;8830;50.978;5.058;2023-04-29T06:51:07;41.20;;;26.47;;
17424;SDS011;8830;50.978;5.058;2023-04-29T06:53:34;39.17;;;28.77;;
17424;SDS011;8830;50.978;5.058;2023-04-29T06:56:01;41.57;;;27.87;;
17424;SDS011;8830;50.978;5.058;2023-04-29T06:58:29;40.33;;;26.77;;
17424;SDS011;8830;50.978;5.058;2023-04-29T07:00:57;40.17;;;28.23;;
17424;SDS011;8830;50.978;5.058;2023-04-29T07:03:24;34.00;;;25.07;;
17424;SDS011;8830;50.978;5.058;2023-04-29T07:05:52;33.43;;;24.90;;
17424;SDS011;8830;50.978;5.058;2023-04-29T07:08:21;37.47;;;26.43;;
17424;SDS011;8830;50.978;5.058;2023-04-29T07:10:52;32.80;;;25.20;;
17424;SDS011;8830;50.978;5.058;2023-04-29T07:13:20;35.93;;;26.87;;
17424;SDS011;8830;50.978;5.058;2023-04-29T07:15:48;31.67;;;24.57;;
17424;SDS011;8830;50.978;5.058;2023-04-29T07:18:15;32.70;;;25.27;;
17424;SDS011;8830;50.978;5.058;2023-04-29T07:20:42;29.23;;;23.73;;
17424;SDS011;8830;50.978;5.058;2023-04-29T07:23:10;32.90;;;24.03;;
17424;SDS011;8830;50.978;5.058;2023-04-29T07:25:39;33.23;;;24.97;;
17424;SDS011;8830;50.978;5.058;2023-04-29T07:28:06;33.43;;;24.00;;
17424;SDS011;8830;50.978;5.058;2023-04-29T07:30:34;29.37;;;23.63;;
17424;SDS011;8830;50.978;5.058;2023-04-29T07:33:01;35.53;;;24.23;;
17424;SDS011;8830;50.978;5.058;2023-04-29T07:35:29;33.73;;;25.70;;
17424;SDS011;8830;50.978;5.058;2023-04-29T07:37:56;33.97;;;25.13;;
17424;SDS011;8830;50.978;5.058;2023-04-29T07:40:23;31.43;;;22.63;;
17424;SDS011;8830;50.978;5.058;2023-04-29T07:42:52;35.07;;;23.77;;
17424;SDS011;8830;50.978;5.058;2023-04-29T07:45:19;36.10;;;23.93;;
17424;SDS011;8830;50.978;5.058;2023-04-29T07:47:46;32.07;;;22.83;;
17424;SDS011;8830;50.978;5.058;2023-04-29T07:50:13;32.80;;;25.17;;
17424;SDS011;8830;50.978;5.058;2023-04-29T07:52:40;28.60;;;22.90;;
17424;SDS011;8830;50.978;5.058;2023-04-29T07:55:08;32.67;;;24.40;;
17424;SDS011;8830;50.978;5.058;2023-04-29T07:57:35;26.83;;;21.20;;
17424;SDS011;8830;50.978;5.058;2023-04-29T08:00:05;27.33;;;21.77;;
17424;SDS011;8830;50.978;5.058;2023-04-29T08:02:33;25.50;;;20.60;;
17424;SDS011;8830;50.978;5.058;2023-04-29T08:05:00;29.03;;;20.87;;
17424;SDS011;8830;50.978;5.058;2023-04-29T08:07:27;28.37;;;20.53;;
17424;SDS011;8830;50.978;5.058;2023-04-29T08:09:54;26.17;;;20.27;;
17424;SDS011;8830;50.978;5.058;2023-04-29T08:12:21;25.60;;;19.67;;
17424;SDS011;8830;50.978;5.058;2023-04-29T08:14:48;23.67;;;21.17;;
17424;SDS011;8830;50.978;5.058;2023-04-29T08:17:17;26.70;;;19.73;;
17424;SDS011;8830;50.978;5.058;2023-04-29T08:19:44;27.33;;;21.17;;
17424;SDS011;8830;50.978;5.058;2023-04-29T08:22:11;27.80;;;21.93;;
17424;SDS011;8830;50.978;5.058;2023-04-29T08:24:38;28.63;;;22.53;;
17424;SDS011;8830;50.978;5.058;2023-04-29T08:27:07;27.47;;;21.80;;
17424;SDS011;8830;50.978;5.058;2023-04-29T08:29:34;26.87;;;23.00;;
17424;SDS011;8830;50.978;5.058;2023-04-29T08:32:02;24.93;;;22.23;;
17424;SDS011;8830;50.978;5.058;2023-04-29T08:34:31;29.37;;;22.93;;
17424;SDS011;8830;50.978;5.058;2023-04-29T08:37:01;30.77;;;22.23;;
17424;SDS011;8830;50.978;5.058;2023-04-29T08:39:28;22.93;;;20.30;;
17424;SDS011;8830;50.978;5.058;2023-04-29T08:41:56;23.97;;;21.37;;
17424;SDS011;8830;50.978;5.058;2023-04-29T08:44:24;30.27;;;21.17;;
17424;SDS011;8830;50.978;5.058;2023-04-29T08:46:51;24.67;;;20.23;;
17424;SDS011;8830;50.978;5.058;2023-04-29T08:49:19;26.37;;;21.43;;
17424;SDS011;8830;50.978;5.058;2023-04-29T08:51:48;27.60;;;20.83;;
17424;SDS011;8830;50.978;5.058;2023-04-29T08:54:17;24.83;;;20.87;;
17424;SDS011;8830;50.978;5.058;2023-04-29T08:56:44;24.87;;;20.97;;
17424;SDS011;8830;50.978;5.058;2023-04-29T08:59:12;33.40;;;23.17;;
17424;SDS011;8830;50.978;5.058;2023-04-29T09:01:41;24.10;;;21.50;;
17424;SDS011;8830;50.978;5.058;2023-04-29T09:04:14;22.37;;;20.17;;
17424;SDS011;8830;50.978;5.058;2023-04-29T09:06:50;25.10;;;19.67;;
17424;SDS011;8830;50.978;5.058;2023-04-29T09:09:21;23.10;;;19.73;;
17424;SDS011;8830;50.978;5.058;2023-04-29T09:11:49;27.40;;;20.23;;
17424;SDS011;8830;50.978;5.058;2023-04-29T09:14:17;24.77;;;19.33;;
17424;SDS011;8830;50.978;5.058;2023-04-29T09:16:45;19.53;;;17.50;;
17424;SDS011;8830;50.978;5.058;2023-04-29T09:19:26;22.60;;;18.97;;
17424;SDS011;8830;50.978;5.058;2023-04-29T09:21:56;22.30;;;18.43;;
17424;SDS011;8830;50.978;5.058;2023-04-29T09:24:24;24.80;;;19.30;;
17424;SDS011;8830;50.978;5.058;2023-04-29T09:26:53;23.27;;;18.17;;
17424;SDS011;8830;50.978;5.058;2023-04-29T09:29:21;23.93;;;17.63;;
17424;SDS011;8830;50.978;5.058;2023-04-29T09:31:48;21.53;;;17.37;;
17424;SDS011;8830;50.978;5.058;2023-04-29T09:34:18;17.70;;;16.03;;
17424;SDS011;8830;50.978;5.058;2023-04-29T09:36:58;17.07;;;15.43;;
17424;SDS011;8830;50.978;5.058;2023-04-29T09:39:25;17.33;;;15.63;;
17424;SDS011;8830;50.978;5.058;2023-04-29T09:41:59;18.80;;;16.33;;
17424;SDS011;8830;50.978;5.058;2023-04-29T09:44:28;19.37;;;15.93;;
17424;SDS011;8830;50.978;5.058;2023-04-29T09:46:56;25.50;;;17.37;;
17424;SDS011;8830;50.978;5.058;2023-04-29T09:49:27;28.97;;;19.03;;
17424;SDS011;8830;50.978;5.058;2023-04-29T09:51:56;19.80;;;17.53;;
17424;SDS011;8830;50.978;5.058;2023-04-29T09:54:27;21.17;;;17.57;;
17424;SDS011;8830;50.978;5.058;2023-04-29T09:56:56;22.87;;;17.77;;
17424;SDS011;8830;50.978;5.058;2023-04-29T09:59:24;19.20;;;16.77;;
17424;SDS011;8830;50.978;5.058;2023-04-29T10:01:52;22.60;;;17.43;;
17424;SDS011;8830;50.978;5.058;2023-04-29T10:04:21;23.80;;;17.27;;
17424;SDS011;8830;50.978;5.058;2023-04-29T10:06:52;17.20;;;15.47;;
17424;SDS011;8830;50.978;5.058;2023-04-29T10:09:22;19.37;;;16.20;;
17424;SDS011;8830;50.978;5.058;2023-04-29T10:11:51;17.70;;;16.00;;
17424;SDS011;8830;50.978;5.058;2023-04-29T10:14:19;21.10;;;17.20;;
17424;SDS011;8830;50.978;5.058;2023-04-29T10:16:49;18.03;;;16.10;;
17424;SDS011;8830;50.978;5.058;2023-04-29T10:19:31;19.77;;;17.73;;
17424;SDS011;8830;50.978;5.058;2023-04-29T10:22:04;20.60;;;17.70;;
17424;SDS011;8830;50.978;5.058;2023-04-29T10:24:36;22.30;;;17.57;;
17424;SDS011;8830;50.978;5.058;2023-04-29T10:27:06;21.53;;;17.10;;
17424;SDS011;8830;50.978;5.058;2023-04-29T10:29:36;19.00;;;16.93;;
17424;SDS011;8830;50.978;5.058;2023-04-29T10:32:06;19.10;;;16.93;;
17424;SDS011;8830;50.978;5.058;2023-04-29T10:34:36;19.63;;;17.13;;
17424;SDS011;8830;50.978;5.058;2023-04-29T10:37:04;21.17;;;17.87;;
17424;SDS011;8830;50.978;5.058;2023-04-29T10:39:34;24.00;;;18.70;;
17424;SDS011;8830;50.978;5.058;2023-04-29T10:42:20;24.50;;;17.90;;
17424;SDS011;8830;50.978;5.058;2023-04-29T10:45:17;26.70;;;19.20;;
17424;SDS011;8830;50.978;5.058;2023-04-29T10:51:01;26.93;;;19.30;;
17424;SDS011;8830;50.978;5.058;2023-04-29T10:53:29;20.27;;;18.03;;
17424;SDS011;8830;50.978;5.058;2023-04-29T10:55:58;22.27;;;18.60;;
17424;SDS011;8830;50.978;5.058;2023-04-29T10:58:34;20.77;;;18.57;;
17424;SDS011;8830;50.978;5.058;2023-04-29T11:01:06;20.37;;;17.70;;
17424;SDS011;8830;50.978;5.058;2023-04-29T11:03:49;22.97;;;18.43;;
17424;SDS011;8830;50.978;5.058;2023-04-29T11:06:22;22.13;;;18.27;;
17424;SDS011;8830;50.978;5.058;2023-04-29T11:09:01;19.73;;;17.37;;
17424;SDS011;8830;50.978;5.058;2023-04-29T11:11:44;22.50;;;19.50;;
17424;SDS011;8830;50.978;5.058;2023-04-29T11:14:23;22.90;;;20.47;;
17424;SDS011;8830;50.978;5.058;2023-04-29T11:16:51;24.90;;;19.70;;
17424;SDS011;8830;50.978;5.058;2023-04-29T11:19:19;22.00;;;19.63;;
17424;SDS011;8830;50.978;5.058;2023-04-29T11:21:50;25.63;;;21.93;;
17424;SDS011;8830;50.978;5.058;2023-04-29T11:24:33;24.87;;;20.97;;
17424;SDS011;8830;50.978;5.058;2023-04-29T11:27:02;20.37;;;17.30;;
17424;SDS011;8830;50.978;5.058;2023-04-29T11:29:30;16.90;;;15.10;;
17424;SDS011;8830;50.978;5.058;2023-04-29T11:31:58;16.83;;;14.47;;
17424;SDS011;8830;50.978;5.058;2023-04-29T11:34:25;17.33;;;14.27;;
17424;SDS011;8830;50.978;5.058;2023-04-29T11:36:52;20.37;;;14.43;;
17424;SDS011;8830;50.978;5.058;2023-04-29T11:39:19;20.17;;;17.20;;
17424;SDS011;8830;50.978;5.058;2023-04-29T11:41:48;18.43;;;14.37;;
17424;SDS011;8830;50.978;5.058;2023-04-29T11:44:21;17.07;;;14.60;;
17424;SDS011;8830;50.978;5.058;2023-04-29T11:46:48;20.40;;;14.17;;
17424;SDS011;8830;50.978;5.058;2023-04-29T11:49:15;15.07;;;13.53;;
17424;SDS011;8830;50.978;5.058;2023-04-29T11:51:43;15.50;;;14.00;;
17424;SDS011;8830;50.978;5.058;2023-04-29T11:54:10;14.00;;;12.77;;
17424;SDS011;8830;50.978;5.058;2023-04-29T11:56:37;15.00;;;12.63;;
17424;SDS011;8830;50.978;5.058;2023-04-29T11:59:05;14.77;;;13.07;;
17424;SDS011;8830;50.978;5.058;2023-04-29T12:01:33;15.37;;;13.43;;
17424;SDS011;8830;50.978;5.058;2023-04-29T12:04:02;14.67;;;13.17;;
17424;SDS011;8830;50.978;5.058;2023-04-29T12:06:31;13.17;;;11.93;;
17424;SDS011;8830;50.978;5.058;2023-04-29T12:08:58;13.70;;;12.47;;
17424;SDS011;8830;50.978;5.058;2023-04-29T12:11:28;14.70;;;12.10;;
17424;SDS011;8830;50.978;5.058;2023-04-29T12:13:55;14.87;;;13.53;;
17424;SDS011;8830;50.978;5.058;2023-04-29T12:16:26;12.20;;;10.97;;
17424;SDS011;8830;50.978;5.058;2023-04-29T12:18:55;13.80;;;12.53;;
17424;SDS011;8830;50.978;5.058;2023-04-29T12:21:23;13.47;;;12.27;;
17424;SDS011;8830;50.978;5.058;2023-04-29T12:23:50;13.80;;;12.47;;
17424;SDS011;8830;50.978;5.058;2023-04-29T12:26:17;16.00;;;14.57;;
17424;SDS011;8830;50.978;5.058;2023-04-29T12:28:47;15.37;;;11.80;;
17424;SDS011;8830;50.978;5.058;2023-04-29T12:31:14;13.73;;;11.60;;
17424;SDS011;8830;50.978;5.058;2023-04-29T12:33:42;13.47;;;12.00;;
17424;SDS011;8830;50.978;5.058;2023-04-29T12:36:16;12.70;;;11.50;;
17424;SDS011;8830;50.978;5.058;2023-04-29T12:38:43;12.70;;;11.43;;
17424;SDS011;8830;50.978;5.058;2023-04-29T12:41:12;12.40;;;11.40;;
17424;SDS011;8830;50.978;5.058;2023-04-29T12:43:41;11.80;;;10.70;;
17424;SDS011;8830;50.978;5.058;2023-04-29T12:46:09;11.40;;;10.30;;
17424;SDS011;8830;50.978;5.058;2023-04-29T12:48:38;11.40;;;10.10;;
17424;SDS011;8830;50.978;5.058;2023-04-29T12:51:08;11.33;;;10.10;;
17424;SDS011;8830;50.978;5.058;2023-04-29T12:53:37;12.13;;;10.60;;
17424;SDS011;8830;50.978;5.058;2023-04-29T12:56:06;21.27;;;11.13;;
17424;SDS011;8830;50.978;5.058;2023-04-29T12:58:33;11.60;;;10.43;;
17424;SDS011;8830;50.978;5.058;2023-04-29T13:01:01;15.17;;;10.50;;
17424;SDS011;8830;50.978;5.058;2023-04-29T13:03:28;10.07;;;9.17;;
17424;SDS011;8830;50.978;5.058;2023-04-29T13:05:56;10.97;;;9.30;;
17424;SDS011;8830;50.978;5.058;2023-04-29T13:08:23;9.93;;;9.13;;
17424;SDS011;8830;50.978;5.058;2023-04-29T13:10:53;14.07;;;9.07;;
17424;SDS011;8830;50.978;5.058;2023-04-29T13:13:20;10.73;;;9.70;;
17424;SDS011;8830;50.978;5.058;2023-04-29T13:15:47;11.63;;;9.63;;
17424;SDS011;8830;50.978;5.058;2023-04-29T13:18:14;11.97;;;9.90;;
17424;SDS011;8830;50.978;5.058;2023-04-29T13:20:41;10.17;;;9.30;;
17424;SDS011;8830;50.978;5.058;2023-04-29T13:23:08;10.53;;;9.60;;
17424;SDS011;8830;50.978;5.058;2023-04-29T13:25:36;10.13;;;9.13;;
17424;SDS011;8830;50.978;5.058;2023-04-29T13:28:05;9.77;;;8.97;;
17424;SDS011;8830;50.978;5.058;2023-04-29T13:30:32;10.87;;;9.87;;
17424;SDS011;8830;50.978;5.058;2023-04-29T13:32:59;12.30;;;11.07;;
17424;SDS011;8830;50.978;5.058;2023-04-29T13:35:27;13.83;;;12.43;;
17424;SDS011;8830;50.978;5.058;2023-04-29T13:37:54;11.70;;;10.57;;
17424;SDS011;8830;50.978;5.058;2023-04-29T13:40:21;11.47;;;10.20;;
17424;SDS011;8830;50.978;5.058;2023-04-29T13:42:48;13.27;;;12.13;;
17424;SDS011;8830;50.978;5.058;2023-04-29T13:45:17;13.40;;;12.03;;
17424;SDS011;8830;50.978;5.058;2023-04-29T13:47:44;20.07;;;15.57;;
17424;SDS011;8830;50.978;5.058;2023-04-29T13:50:11;13.70;;;12.60;;
17424;SDS011;8830;50.978;5.058;2023-04-29T13:52:39;12.00;;;10.83;;
17424;SDS011;8830;50.978;5.058;2023-04-29T13:55:06;13.27;;;12.17;;
17424;SDS011;8830;50.978;5.058;2023-04-29T13:57:34;11.60;;;10.67;;
17424;SDS011;8830;50.978;5.058;2023-04-29T14:00:01;42.60;;;11.13;;
17424;SDS011;8830;50.978;5.058;2023-04-29T14:02:30;11.40;;;10.20;;
17424;SDS011;8830;50.978;5.058;2023-04-29T14:04:57;10.67;;;9.13;;
17424;SDS011;8830;50.978;5.058;2023-04-29T14:07:24;9.07;;;8.27;;
17424;SDS011;8830;50.978;5.058;2023-04-29T14:09:51;9.00;;;8.20;;
17424;SDS011;8830;50.978;5.058;2023-04-29T14:12:18;10.27;;;8.30;;
17424;SDS011;8830;50.978;5.058;2023-04-29T14:14:46;9.77;;;8.87;;
17424;SDS011;8830;50.978;5.058;2023-04-29T14:17:13;9.20;;;8.27;;
17424;SDS011;8830;50.978;5.058;2023-04-29T14:19:41;9.30;;;8.40;;
17424;SDS011;8830;50.978;5.058;2023-04-29T14:22:08;8.57;;;7.87;;
17424;SDS011;8830;50.978;5.058;2023-04-29T14:24:35;9.03;;;8.13;;
17424;SDS011;8830;50.978;5.058;2023-04-29T14:27:03;8.77;;;8.07;;
17424;SDS011;8830;50.978;5.058;2023-04-29T14:29:30;10.00;;;9.00;;
17424;SDS011;8830;50.978;5.058;2023-04-29T14:31:58;8.63;;;7.70;;
17424;SDS011;8830;50.978;5.058;2023-04-29T14:34:25;8.77;;;7.93;;
17424;SDS011;8830;50.978;5.058;2023-04-29T14:36:53;8.80;;;8.00;;
17424;SDS011;8830;50.978;5.058;2023-04-29T14:39:23;7.93;;;7.23;;
17424;SDS011;8830;50.978;5.058;2023-04-29T14:41:51;9.43;;;7.10;;
17424;SDS011;8830;50.978;5.058;2023-04-29T14:44:18;7.23;;;6.53;;
17424;SDS011;8830;50.978;5.058;2023-04-29T14:46:45;11.40;;;9.47;;
17424;SDS011;8830;50.978;5.058;2023-04-29T14:49:13;13.07;;;11.70;;